sensor_id;sensor_type;location;lat;lon;timestamp;temperature;humidity
69324;DHT22;56470;47.350;8.718;2023-02-28T00:01:14;0.67;68.10
69324;DHT22;56470;47.350;8.718;2023-02-28T00:03:41;0.65;68.50
69324;DHT22;56470;47.350;8.718;2023-02-28T00:06:08;0.69;68.49
69324;DHT22;56470;47.350;8.718;2023-02-28T00:08:34;0.69;68.39
69324;DHT22;56470;47.350;8.718;2023-02-28T00:13:44;0.71;68.22
69324;DHT22;56470;47.350;8.718;2023-02-28T00:16:14;0.71;68.35
69324;DHT22;56470;47.350;8.718;2023-02-28T00:18:40;0.75;68.32
69324;DHT22;56470;47.350;8.718;2023-02-28T00:21:06;0.81;68.23
69324;DHT22;56470;47.350;8.718;2023-02-28T00:23:32;0.84;68.16
69324;DHT22;56470;47.350;8.718;2023-02-28T00:25:57;0.89;68.16
69324;DHT22;56470;47.350;8.718;2023-02-28T00:28:23;0.89;68.05
69324;DHT22;56470;47.350;8.718;2023-02-28T00:30:49;0.92;67.91
69324;DHT22;56470;47.350;8.718;2023-02-28T00:33:35;0.91;67.72
69324;DHT22;56470;47.350;8.718;2023-02-28T00:36:19;0.84;67.92
69324;DHT22;56470;47.350;8.718;2023-02-28T00:38:46;0.86;67.81
69324;DHT22;56470;47.350;8.718;2023-02-28T00:41:13;0.79;67.95
69324;DHT22;56470;47.350;8.718;2023-02-28T00:43:40;0.85;68.15
69324;DHT22;56470;47.350;8.718;2023-02-28T00:46:05;0.82;67.79
69324;DHT22;56470;47.350;8.718;2023-02-28T00:48:31;0.79;68.05
69324;DHT22;56470;47.350;8.718;2023-02-28T00:50:57;0.82;68.13
69324;DHT22;56470;47.350;8.718;2023-02-28T00:53:22;0.84;68.06
69324;DHT22;56470;47.350;8.718;2023-02-28T00:55:49;0.84;67.91
69324;DHT22;56470;47.350;8.718;2023-02-28T00:58:14;0.78;68.12
69324;DHT22;56470;47.350;8.718;2023-02-28T01:00:40;0.74;68.25
69324;DHT22;56470;47.350;8.718;2023-02-28T01:03:05;0.76;68.12
69324;DHT22;56470;47.350;8.718;2023-02-28T01:05:30;0.69;68.14
69324;DHT22;56470;47.350;8.718;2023-02-28T01:07:56;0.69;68.36
69324;DHT22;56470;47.350;8.718;2023-02-28T01:10:21;0.68;68.32
69324;DHT22;56470;47.350;8.718;2023-02-28T01:12:47;0.68;68.35
69324;DHT22;56470;47.350;8.718;2023-02-28T01:15:12;0.71;68.45
69324;DHT22;56470;47.350;8.718;2023-02-28T01:17:37;0.71;68.09
69324;DHT22;56470;47.350;8.718;2023-02-28T01:20:03;0.68;68.42
69324;DHT22;56470;47.350;8.718;2023-02-28T01:22:29;0.75;68.39
69324;DHT22;56470;47.350;8.718;2023-02-28T01:24:55;0.81;68.18
69324;DHT22;56470;47.350;8.718;2023-02-28T01:27:20;0.78;68.20
69324;DHT22;56470;47.350;8.718;2023-02-28T01:29:45;0.81;68.24
69324;DHT22;56470;47.350;8.718;2023-02-28T01:32:11;0.85;68.28
69324;DHT22;56470;47.350;8.718;2023-02-28T01:34:36;0.91;68.36
69324;DHT22;56470;47.350;8.718;2023-02-28T01:37:02;0.96;68.13
69324;DHT22;56470;47.350;8.718;2023-02-28T01:39:28;0.96;67.94
69324;DHT22;56470;47.350;8.718;2023-02-28T01:41:54;1.00;68.01
69324;DHT22;56470;47.350;8.718;2023-02-28T01:47:22;1.03;67.88
69324;DHT22;56470;47.350;8.718;2023-02-28T01:49:49;1.03;67.81
69324;DHT22;56470;47.350;8.718;2023-02-28T01:52:16;1.03;67.72
69324;DHT22;56470;47.350;8.718;2023-02-28T01:54:47;1.00;67.67
69324;DHT22;56470;47.350;8.718;2023-02-28T01:57:18;0.96;67.71
69324;DHT22;56470;47.350;8.718;2023-02-28T02:00:00;0.95;67.93
69324;DHT22;56470;47.350;8.718;2023-02-28T02:02:29;0.99;67.79
69324;DHT22;56470;47.350;8.718;2023-02-28T02:05:08;0.91;67.95
69324;DHT22;56470;47.350;8.718;2023-02-28T02:07:38;0.93;68.08
69324;DHT22;56470;47.350;8.718;2023-02-28T02:10:29;0.93;67.87
69324;DHT22;56470;47.350;8.718;2023-02-28T02:18:26;0.96;67.90
69324;DHT22;56470;47.350;8.718;2023-02-28T02:29:42;0.91;67.86
69324;DHT22;56470;47.350;8.718;2023-02-28T02:35:23;0.91;67.75
69324;DHT22;56470;47.350;8.718;2023-02-28T02:37:51;0.91;67.93
69324;DHT22;56470;47.350;8.718;2023-02-28T02:40:20;0.88;67.91
69324;DHT22;56470;47.350;8.718;2023-02-28T02:45:33;0.89;67.78
69324;DHT22;56470;47.350;8.718;2023-02-28T02:48:02;0.85;67.90
69324;DHT22;56470;47.350;8.718;2023-02-28T02:50:50;0.81;67.91
69324;DHT22;56470;47.350;8.718;2023-02-28T02:53:19;0.85;68.01
69324;DHT22;56470;47.350;8.718;2023-02-28T02:55:48;0.89;67.88
69324;DHT22;56470;47.350;8.718;2023-02-28T02:58:22;0.85;67.96
69324;DHT22;56470;47.350;8.718;2023-02-28T03:00:53;0.93;67.76
69324;DHT22;56470;47.350;8.718;2023-02-28T03:03:20;0.93;67.76
69324;DHT22;56470;47.350;8.718;2023-02-28T03:05:55;0.91;67.82
69324;DHT22;56470;47.350;8.718;2023-02-28T03:08:21;0.88;67.81
69324;DHT22;56470;47.350;8.718;2023-02-28T03:11:10;0.84;67.83
69324;DHT22;56470;47.350;8.718;2023-02-28T03:19:53;0.75;68.15
69324;DHT22;56470;47.350;8.718;2023-02-28T03:23:09;0.85;67.59
69324;DHT22;56470;47.350;8.718;2023-02-28T03:28:21;0.64;67.97
69324;DHT22;56470;47.350;8.718;2023-02-28T03:31:07;0.60;68.40
69324;DHT22;56470;47.350;8.718;2023-02-28T03:33:39;0.56;68.03
69324;DHT22;56470;47.350;8.718;2023-02-28T03:36:14;0.54;68.20
69324;DHT22;56470;47.350;8.718;2023-02-28T03:39:03;0.50;68.50
69324;DHT22;56470;47.350;8.718;2023-02-28T03:47:06;0.68;68.46
69324;DHT22;56470;47.350;8.718;2023-02-28T03:49:40;0.76;68.21
69324;DHT22;56470;47.350;8.718;2023-02-28T03:52:12;0.81;68.15
69324;DHT22;56470;47.350;8.718;2023-02-28T03:54:44;0.84;67.93
69324;DHT22;56470;47.350;8.718;2023-02-28T03:57:34;0.78;67.84
69324;DHT22;56470;47.350;8.718;2023-02-28T04:00:08;0.81;67.98
69324;DHT22;56470;47.350;8.718;2023-02-28T04:02:35;0.85;67.95
69324;DHT22;56470;47.350;8.718;2023-02-28T04:05:01;0.91;67.71
69324;DHT22;56470;47.350;8.718;2023-02-28T04:07:29;0.82;67.80
69324;DHT22;56470;47.350;8.718;2023-02-28T04:09:55;0.85;67.89
69324;DHT22;56470;47.350;8.718;2023-02-28T04:12:20;0.84;67.67
69324;DHT22;56470;47.350;8.718;2023-02-28T04:14:48;0.86;67.79
69324;DHT22;56470;47.350;8.718;2023-02-28T04:17:13;0.88;67.83
69324;DHT22;56470;47.350;8.718;2023-02-28T04:19:39;0.91;67.75
69324;DHT22;56470;47.350;8.718;2023-02-28T04:22:04;0.92;67.73
69324;DHT22;56470;47.350;8.718;2023-02-28T04:24:29;0.91;67.66
69324;DHT22;56470;47.350;8.718;2023-02-28T04:26:57;0.93;67.74
69324;DHT22;56470;47.350;8.718;2023-02-28T04:29:30;0.91;67.51
69324;DHT22;56470;47.350;8.718;2023-02-28T04:31:57;0.92;67.56
69324;DHT22;56470;47.350;8.718;2023-02-28T04:34:25;0.92;67.50
69324;DHT22;56470;47.350;8.718;2023-02-28T04:36:51;0.91;67.46
69324;DHT22;56470;47.350;8.718;2023-02-28T04:39:19;0.89;67.47
69324;DHT22;56470;47.350;8.718;2023-02-28T04:41:45;0.85;67.58
69324;DHT22;56470;47.350;8.718;2023-02-28T04:44:10;0.84;67.53
69324;DHT22;56470;47.350;8.718;2023-02-28T04:46:36;0.86;67.59
69324;DHT22;56470;47.350;8.718;2023-02-28T04:49:04;0.85;67.55
69324;DHT22;56470;47.350;8.718;2023-02-28T04:51:29;0.85;67.39
69324;DHT22;56470;47.350;8.718;2023-02-28T04:53:55;0.82;67.43
69324;DHT22;56470;47.350;8.718;2023-02-28T04:56:20;0.81;67.55
69324;DHT22;56470;47.350;8.718;2023-02-28T04:58:47;0.84;67.46
69324;DHT22;56470;47.350;8.718;2023-02-28T05:01:27;0.78;67.38
69324;DHT22;56470;47.350;8.718;2023-02-28T05:03:55;0.82;67.41
69324;DHT22;56470;47.350;8.718;2023-02-28T05:06:22;0.76;67.47
69324;DHT22;56470;47.350;8.718;2023-02-28T05:08:52;0.75;67.59
69324;DHT22;56470;47.350;8.718;2023-02-28T05:11:53;0.67;67.27
69324;DHT22;56470;47.350;8.718;2023-02-28T05:14:29;0.53;67.76
69324;DHT22;56470;47.350;8.718;2023-02-28T05:17:00;0.47;67.78
69324;DHT22;56470;47.350;8.718;2023-02-28T05:19:27;0.48;67.80
69324;DHT22;56470;47.350;8.718;2023-02-28T05:21:54;0.44;67.92
69324;DHT22;56470;47.350;8.718;2023-02-28T05:24:23;0.47;67.68
69324;DHT22;56470;47.350;8.718;2023-02-28T05:26:52;0.44;67.96
69324;DHT22;56470;47.350;8.718;2023-02-28T05:29:20;0.41;68.04
69324;DHT22;56470;47.350;8.718;2023-02-28T05:39:32;0.44;68.20
69324;DHT22;56470;47.350;8.718;2023-02-28T05:44:35;0.51;67.82
69324;DHT22;56470;47.350;8.718;2023-02-28T05:47:01;0.51;67.96
69324;DHT22;56470;47.350;8.718;2023-02-28T05:49:26;0.54;68.05
69324;DHT22;56470;47.350;8.718;2023-02-28T05:51:52;0.62;68.08
69324;DHT22;56470;47.350;8.718;2023-02-28T05:54:17;0.71;67.90
69324;DHT22;56470;47.350;8.718;2023-02-28T05:56:42;0.78;67.77
69324;DHT22;56470;47.350;8.718;2023-02-28T05:59:12;0.82;67.33
69324;DHT22;56470;47.350;8.718;2023-02-28T06:01:40;0.78;67.55
69324;DHT22;56470;47.350;8.718;2023-02-28T06:04:08;0.82;67.59
69324;DHT22;56470;47.350;8.718;2023-02-28T06:06:34;0.85;67.35
69324;DHT22;56470;47.350;8.718;2023-02-28T06:09:00;0.88;67.34
69324;DHT22;56470;47.350;8.718;2023-02-28T06:11:34;0.86;67.17
69324;DHT22;56470;47.350;8.718;2023-02-28T06:14:35;0.86;67.21
69324;DHT22;56470;47.350;8.718;2023-02-28T06:19:45;0.82;67.25
69324;DHT22;56470;47.350;8.718;2023-02-28T06:22:20;0.81;67.19
69324;DHT22;56470;47.350;8.718;2023-02-28T06:25:11;0.75;67.31
69324;DHT22;56470;47.350;8.718;2023-02-28T06:27:37;0.72;67.31
69324;DHT22;56470;47.350;8.718;2023-02-28T06:30:03;0.65;67.29
69324;DHT22;56470;47.350;8.718;2023-02-28T06:32:34;0.61;67.39
69324;DHT22;56470;47.350;8.718;2023-02-28T06:35:00;0.58;67.71
69324;DHT22;56470;47.350;8.718;2023-02-28T06:37:26;0.65;67.64
69324;DHT22;56470;47.350;8.718;2023-02-28T06:39:52;0.65;67.62
69324;DHT22;56470;47.350;8.718;2023-02-28T06:42:17;0.71;67.49
69324;DHT22;56470;47.350;8.718;2023-02-28T06:44:43;0.71;67.43
69324;DHT22;56470;47.350;8.718;2023-02-28T06:47:08;0.78;67.39
69324;DHT22;56470;47.350;8.718;2023-02-28T06:49:35;0.76;67.08
69324;DHT22;56470;47.350;8.718;2023-02-28T06:52:01;0.71;67.19
69324;DHT22;56470;47.350;8.718;2023-02-28T06:54:26;0.68;66.98
69324;DHT22;56470;47.350;8.718;2023-02-28T06:56:52;0.56;67.30
69324;DHT22;56470;47.350;8.718;2023-02-28T06:59:19;0.56;67.57
69324;DHT22;56470;47.350;8.718;2023-02-28T07:01:45;0.60;67.68
69324;DHT22;56470;47.350;8.718;2023-02-28T07:04:10;0.65;67.13
69324;DHT22;56470;47.350;8.718;2023-02-28T07:06:35;0.61;67.47
69324;DHT22;56470;47.350;8.718;2023-02-28T07:09:01;0.54;67.59
69324;DHT22;56470;47.350;8.718;2023-02-28T07:11:27;0.51;67.62
69324;DHT22;56470;47.350;8.718;2023-02-28T07:13:54;0.57;67.72
69324;DHT22;56470;47.350;8.718;2023-02-28T07:16:20;0.62;67.71
69324;DHT22;56470;47.350;8.718;2023-02-28T07:18:47;0.68;67.68
69324;DHT22;56470;47.350;8.718;2023-02-28T07:21:13;0.69;67.55
69324;DHT22;56470;47.350;8.718;2023-02-28T07:23:39;0.74;67.44
69324;DHT22;56470;47.350;8.718;2023-02-28T07:26:05;0.75;67.58
69324;DHT22;56470;47.350;8.718;2023-02-28T07:28:31;0.86;67.45
69324;DHT22;56470;47.350;8.718;2023-02-28T07:31:03;0.88;67.16
69324;DHT22;56470;47.350;8.718;2023-02-28T07:33:28;0.93;67.18
69324;DHT22;56470;47.350;8.718;2023-02-28T07:36:01;0.96;67.01
69324;DHT22;56470;47.350;8.718;2023-02-28T07:38:27;0.99;67.11
69324;DHT22;56470;47.350;8.718;2023-02-28T07:40:52;1.04;67.04
69324;DHT22;56470;47.350;8.718;2023-02-28T07:43:17;1.02;66.45
69324;DHT22;56470;47.350;8.718;2023-02-28T07:45:43;0.92;66.67
69324;DHT22;56470;47.350;8.718;2023-02-28T07:48:08;0.91;67.05
69324;DHT22;56470;47.350;8.718;2023-02-28T07:50:35;0.95;66.79
69324;DHT22;56470;47.350;8.718;2023-02-28T07:53:00;0.91;66.76
69324;DHT22;56470;47.350;8.718;2023-02-28T07:55:26;0.88;66.95
69324;DHT22;56470;47.350;8.718;2023-02-28T07:57:51;0.91;66.93
69324;DHT22;56470;47.350;8.718;2023-02-28T08:00:17;0.91;66.72
69324;DHT22;56470;47.350;8.718;2023-02-28T08:02:42;0.86;66.62
69324;DHT22;56470;47.350;8.718;2023-02-28T08:05:08;0.81;66.77
69324;DHT22;56470;47.350;8.718;2023-02-28T08:07:33;0.86;67.02
69324;DHT22;56470;47.350;8.718;2023-02-28T08:09:58;0.86;67.16
69324;DHT22;56470;47.350;8.718;2023-02-28T08:12:24;0.88;66.95
69324;DHT22;56470;47.350;8.718;2023-02-28T08:14:49;0.91;66.80
69324;DHT22;56470;47.350;8.718;2023-02-28T08:17:14;0.88;66.69
69324;DHT22;56470;47.350;8.718;2023-02-28T08:19:40;0.76;66.63
69324;DHT22;56470;47.350;8.718;2023-02-28T08:22:05;0.76;66.94
69324;DHT22;56470;47.350;8.718;2023-02-28T08:24:31;0.79;66.84
69324;DHT22;56470;47.350;8.718;2023-02-28T08:26:56;0.72;66.74
69324;DHT22;56470;47.350;8.718;2023-02-28T08:29:21;0.74;67.10
69324;DHT22;56470;47.350;8.718;2023-02-28T08:31:47;0.78;67.05
69324;DHT22;56470;47.350;8.718;2023-02-28T08:34:14;0.84;66.55
69324;DHT22;56470;47.350;8.718;2023-02-28T08:36:40;0.71;66.63
69324;DHT22;56470;47.350;8.718;2023-02-28T08:39:06;0.64;66.76
69324;DHT22;56470;47.350;8.718;2023-02-28T08:41:32;0.62;67.04
69324;DHT22;56470;47.350;8.718;2023-02-28T08:43:57;0.65;66.93
69324;DHT22;56470;47.350;8.718;2023-02-28T08:46:23;0.67;66.90
69324;DHT22;56470;47.350;8.718;2023-02-28T08:48:52;0.65;66.78
69324;DHT22;56470;47.350;8.718;2023-02-28T08:51:18;0.72;66.76
69324;DHT22;56470;47.350;8.718;2023-02-28T08:53:51;0.72;66.66
69324;DHT22;56470;47.350;8.718;2023-02-28T08:56:16;0.64;66.65
69324;DHT22;56470;47.350;8.718;2023-02-28T08:58:43;0.57;66.67
69324;DHT22;56470;47.350;8.718;2023-02-28T09:01:13;0.54;66.81
69324;DHT22;56470;47.350;8.718;2023-02-28T09:03:40;0.46;67.13
69324;DHT22;56470;47.350;8.718;2023-02-28T09:06:09;0.48;67.09
69324;DHT22;56470;47.350;8.718;2023-02-28T09:08:35;0.51;66.90
69324;DHT22;56470;47.350;8.718;2023-02-28T09:11:01;0.58;66.78
69324;DHT22;56470;47.350;8.718;2023-02-28T09:13:28;0.60;66.67
69324;DHT22;56470;47.350;8.718;2023-02-28T09:15:54;0.60;66.87
69324;DHT22;56470;47.350;8.718;2023-02-28T09:18:20;0.61;66.99
69324;DHT22;56470;47.350;8.718;2023-02-28T09:20:45;0.65;67.20
69324;DHT22;56470;47.350;8.718;2023-02-28T09:23:12;0.74;67.20
69324;DHT22;56470;47.350;8.718;2023-02-28T09:25:38;0.79;66.82
69324;DHT22;56470;47.350;8.718;2023-02-28T09:28:09;0.76;66.47
69324;DHT22;56470;47.350;8.718;2023-02-28T09:30:35;0.74;66.52
69324;DHT22;56470;47.350;8.718;2023-02-28T09:33:00;0.75;66.78
69324;DHT22;56470;47.350;8.718;2023-02-28T09:35:25;0.75;67.00
69324;DHT22;56470;47.350;8.718;2023-02-28T09:37:52;0.67;67.07
69324;DHT22;56470;47.350;8.718;2023-02-28T09:40:19;0.75;67.24
69324;DHT22;56470;47.350;8.718;2023-02-28T09:42:46;0.75;67.33
69324;DHT22;56470;47.350;8.718;2023-02-28T09:45:36;0.75;67.44
69324;DHT22;56470;47.350;8.718;2023-02-28T09:48:23;0.85;66.96
69324;DHT22;56470;47.350;8.718;2023-02-28T09:51:00;0.81;67.03
69324;DHT22;56470;47.350;8.718;2023-02-28T09:53:35;0.88;67.15
69324;DHT22;56470;47.350;8.718;2023-02-28T09:56:10;0.93;67.02
69324;DHT22;56470;47.350;8.718;2023-02-28T09:58:42;0.95;66.53
69324;DHT22;56470;47.350;8.718;2023-02-28T10:01:19;0.92;66.69
69324;DHT22;56470;47.350;8.718;2023-02-28T10:03:55;0.93;66.81
69324;DHT22;56470;47.350;8.718;2023-02-28T10:06:27;0.96;66.75
69324;DHT22;56470;47.350;8.718;2023-02-28T10:09:02;1.10;66.45
69324;DHT22;56470;47.350;8.718;2023-02-28T10:11:29;1.03;66.53
69324;DHT22;56470;47.350;8.718;2023-02-28T10:14:14;1.13;66.67
69324;DHT22;56470;47.350;8.718;2023-02-28T10:16:47;1.15;66.24
69324;DHT22;56470;47.350;8.718;2023-02-28T10:19:22;1.13;66.10
69324;DHT22;56470;47.350;8.718;2023-02-28T10:21:57;1.12;66.14
69324;DHT22;56470;47.350;8.718;2023-02-28T10:27:01;1.20;65.87
69324;DHT22;56470;47.350;8.718;2023-02-28T10:29:31;1.10;65.86
69324;DHT22;56470;47.350;8.718;2023-02-28T10:32:01;1.09;66.35
69324;DHT22;56470;47.350;8.718;2023-02-28T10:34:27;1.07;66.19
69324;DHT22;56470;47.350;8.718;2023-02-28T10:36:53;1.06;66.01
69324;DHT22;56470;47.350;8.718;2023-02-28T10:42:01;1.02;66.05
69324;DHT22;56470;47.350;8.718;2023-02-28T10:44:26;0.97;66.18
69324;DHT22;56470;47.350;8.718;2023-02-28T10:46:52;1.02;65.90
69324;DHT22;56470;47.350;8.718;2023-02-28T10:49:26;0.95;66.46
69324;DHT22;56470;47.350;8.718;2023-02-28T10:51:55;1.03;66.55
69324;DHT22;56470;47.350;8.718;2023-02-28T10:54:26;1.12;66.40
69324;DHT22;56470;47.350;8.718;2023-02-28T10:57:19;1.07;65.85
69324;DHT22;56470;47.350;8.718;2023-02-28T10:59:45;1.07;66.39
69324;DHT22;56470;47.350;8.718;2023-02-28T11:04:54;1.13;65.83
69324;DHT22;56470;47.350;8.718;2023-02-28T11:07:23;1.09;66.15
69324;DHT22;56470;47.350;8.718;2023-02-28T11:09:50;1.09;65.94
69324;DHT22;56470;47.350;8.718;2023-02-28T11:12:36;1.00;66.43
69324;DHT22;56470;47.350;8.718;2023-02-28T11:15:06;0.99;66.37
69324;DHT22;56470;47.350;8.718;2023-02-28T11:17:32;1.02;66.55
69324;DHT22;56470;47.350;8.718;2023-02-28T11:20:00;1.07;66.12
69324;DHT22;56470;47.350;8.718;2023-02-28T11:22:30;1.04;66.36
69324;DHT22;56470;47.350;8.718;2023-02-28T11:24:59;1.04;66.43
69324;DHT22;56470;47.350;8.718;2023-02-28T11:29:59;0.95;66.35
69324;DHT22;56470;47.350;8.718;2023-02-28T11:32:26;0.84;66.91
69324;DHT22;56470;47.350;8.718;2023-02-28T11:37:52;0.91;66.65
69324;DHT22;56470;47.350;8.718;2023-02-28T11:43:33;0.89;66.78
69324;DHT22;56470;47.350;8.718;2023-02-28T11:46:23;0.86;66.94
69324;DHT22;56470;47.350;8.718;2023-02-28T11:51:58;1.03;66.40
69324;DHT22;56470;47.350;8.718;2023-02-28T11:54:35;0.97;66.75
69324;DHT22;56470;47.350;8.718;2023-02-28T11:57:33;1.12;66.81
69324;DHT22;56470;47.350;8.718;2023-02-28T12:05:30;1.26;66.05
69324;DHT22;56470;47.350;8.718;2023-02-28T12:08:35;1.30;66.52
69324;DHT22;56470;47.350;8.718;2023-02-28T12:11:24;1.26;65.91
69324;DHT22;56470;47.350;8.718;2023-02-28T12:22:31;1.57;66.14
69324;DHT22;56470;47.350;8.718;2023-02-28T12:25:13;1.62;65.45
69324;DHT22;56470;47.350;8.718;2023-02-28T12:27:46;1.62;65.37
69324;DHT22;56470;47.350;8.718;2023-02-28T12:32:54;1.79;65.38
69324;DHT22;56470;47.350;8.718;2023-02-28T12:35:27;1.79;65.07
69324;DHT22;56470;47.350;8.718;2023-02-28T12:38:03;1.75;64.96
69324;DHT22;56470;47.350;8.718;2023-02-28T12:40:41;1.72;64.98
69324;DHT22;56470;47.350;8.718;2023-02-28T12:43:09;1.64;65.16
69324;DHT22;56470;47.350;8.718;2023-02-28T12:48:06;1.57;65.76
69324;DHT22;56470;47.350;8.718;2023-02-28T12:50:33;1.55;65.87
69324;DHT22;56470;47.350;8.718;2023-02-28T13:00:47;1.74;65.32
69324;DHT22;56470;47.350;8.718;2023-02-28T13:03:51;1.75;65.21
69324;DHT22;56470;47.350;8.718;2023-02-28T13:09:15;1.57;65.37
69324;DHT22;56470;47.350;8.718;2023-02-28T13:11:43;1.65;65.67
69324;DHT22;56470;47.350;8.718;2023-02-28T13:14:30;1.61;65.49
69324;DHT22;56470;47.350;8.718;2023-02-28T13:19:42;1.54;66.00
69324;DHT22;56470;47.350;8.718;2023-02-28T13:22:40;1.68;65.54
69324;DHT22;56470;47.350;8.718;2023-02-28T13:27:47;1.69;65.38
69324;DHT22;56470;47.350;8.718;2023-02-28T13:38:47;1.85;65.00
69324;DHT22;56470;47.350;8.718;2023-02-28T13:44:05;1.72;65.48
69324;DHT22;56470;47.350;8.718;2023-02-28T13:46:32;1.75;65.62
69324;DHT22;56470;47.350;8.718;2023-02-28T13:54:44;1.91;65.50
69324;DHT22;56470;47.350;8.718;2023-02-28T13:57:22;1.95;65.17
69324;DHT22;56470;47.350;8.718;2023-02-28T14:02:45;1.87;64.86
69324;DHT22;56470;47.350;8.718;2023-02-28T14:05:18;1.92;64.90
69324;DHT22;56470;47.350;8.718;2023-02-28T14:07:53;1.89;64.85
69324;DHT22;56470;47.350;8.718;2023-02-28T14:18:11;1.82;65.09
69324;DHT22;56470;47.350;8.718;2023-02-28T14:20:40;1.93;65.04
69324;DHT22;56470;47.350;8.718;2023-02-28T14:23:32;1.91;64.66
69324;DHT22;56470;47.350;8.718;2023-02-28T14:28:56;1.93;64.63
69324;DHT22;56470;47.350;8.718;2023-02-28T14:31:43;1.81;65.07
69324;DHT22;56470;47.350;8.718;2023-02-28T14:36:44;1.85;65.23
69324;DHT22;56470;47.350;8.718;2023-02-28T14:39:15;1.85;65.03
69324;DHT22;56470;47.350;8.718;2023-02-28T14:41:44;1.81;64.95
69324;DHT22;56470;47.350;8.718;2023-02-28T14:44:19;1.72;65.06
69324;DHT22;56470;47.350;8.718;2023-02-28T14:46:46;1.66;65.31
69324;DHT22;56470;47.350;8.718;2023-02-28T14:49:24;1.69;65.48
69324;DHT22;56470;47.350;8.718;2023-02-28T14:54:45;1.82;65.06
69324;DHT22;56470;47.350;8.718;2023-02-28T14:57:23;1.79;65.20
69324;DHT22;56470;47.350;8.718;2023-02-28T15:00:12;1.72;65.42
69324;DHT22;56470;47.350;8.718;2023-02-28T15:02:39;1.74;65.34
69324;DHT22;56470;47.350;8.718;2023-02-28T15:07:43;1.71;65.35
69324;DHT22;56470;47.350;8.718;2023-02-28T15:10:18;1.62;65.49
69324;DHT22;56470;47.350;8.718;2023-02-28T15:13:05;1.62;65.77
69324;DHT22;56470;47.350;8.718;2023-02-28T15:15:57;1.59;65.73
69324;DHT22;56470;47.350;8.718;2023-02-28T15:18:26;1.64;65.73
69324;DHT22;56470;47.350;8.718;2023-02-28T15:20:56;1.65;65.74
69324;DHT22;56470;47.350;8.718;2023-02-28T15:23:22;1.66;65.77
69324;DHT22;56470;47.350;8.718;2023-02-28T15:25:49;1.75;65.68
69324;DHT22;56470;47.350;8.718;2023-02-28T15:28:18;1.76;65.71
69324;DHT22;56470;47.350;8.718;2023-02-28T15:30:56;1.79;65.94
69324;DHT22;56470;47.350;8.718;2023-02-28T15:33:28;1.85;65.57
69324;DHT22;56470;47.350;8.718;2023-02-28T15:36:05;1.82;65.29
69324;DHT22;56470;47.350;8.718;2023-02-28T15:38:34;1.79;65.43
69324;DHT22;56470;47.350;8.718;2023-02-28T15:41:00;1.74;65.70
69324;DHT22;56470;47.350;8.718;2023-02-28T15:43:28;1.82;65.37
69324;DHT22;56470;47.350;8.718;2023-02-28T15:46:09;1.81;65.41
69324;DHT22;56470;47.350;8.718;2023-02-28T15:48:55;1.81;65.51
69324;DHT22;56470;47.350;8.718;2023-02-28T15:51:24;1.78;65.56
69324;DHT22;56470;47.350;8.718;2023-02-28T15:56:32;1.81;65.63
69324;DHT22;56470;47.350;8.718;2023-02-28T15:59:20;1.82;65.59
69324;DHT22;56470;47.350;8.718;2023-02-28T16:01:46;1.79;65.59
69324;DHT22;56470;47.350;8.718;2023-02-28T16:04:17;1.76;65.70
69324;DHT22;56470;47.350;8.718;2023-02-28T16:06:44;1.75;65.80
69324;DHT22;56470;47.350;8.718;2023-02-28T16:09:15;1.75;65.47
69324;DHT22;56470;47.350;8.718;2023-02-28T16:11:49;1.72;65.77
69324;DHT22;56470;47.350;8.718;2023-02-28T16:14:20;1.68;66.02
69324;DHT22;56470;47.350;8.718;2023-02-28T16:16:50;1.66;66.16
69324;DHT22;56470;47.350;8.718;2023-02-28T16:19:17;1.59;66.15
69324;DHT22;56470;47.350;8.718;2023-02-28T16:21:42;1.62;66.22
69324;DHT22;56470;47.350;8.718;2023-02-28T16:24:08;1.58;66.45
69324;DHT22;56470;47.350;8.718;2023-02-28T16:26:33;1.62;66.16
69324;DHT22;56470;47.350;8.718;2023-02-28T16:29:01;1.57;66.51
69324;DHT22;56470;47.350;8.718;2023-02-28T16:31:27;1.57;66.70
69324;DHT22;56470;47.350;8.718;2023-02-28T16:33:53;1.59;66.71
69324;DHT22;56470;47.350;8.718;2023-02-28T16:36:22;1.64;66.60
69324;DHT22;56470;47.350;8.718;2023-02-28T16:38:48;1.65;66.39
69324;DHT22;56470;47.350;8.718;2023-02-28T16:41:19;1.65;65.91
69324;DHT22;56470;47.350;8.718;2023-02-28T16:43:50;1.58;66.15
69324;DHT22;56470;47.350;8.718;2023-02-28T16:46:16;1.52;66.44
69324;DHT22;56470;47.350;8.718;2023-02-28T16:48:44;1.46;66.73
69324;DHT22;56470;47.350;8.718;2023-02-28T16:51:14;1.43;66.89
69324;DHT22;56470;47.350;8.718;2023-02-28T16:53:41;1.40;66.81
69324;DHT22;56470;47.350;8.718;2023-02-28T16:56:06;1.44;66.78
69324;DHT22;56470;47.350;8.718;2023-02-28T16:58:35;1.47;66.83
69324;DHT22;56470;47.350;8.718;2023-02-28T17:01:03;1.47;66.72
69324;DHT22;56470;47.350;8.718;2023-02-28T17:03:29;1.50;67.01
69324;DHT22;56470;47.350;8.718;2023-02-28T17:05:54;1.48;67.03
69324;DHT22;56470;47.350;8.718;2023-02-28T17:08:20;1.50;67.12
69324;DHT22;56470;47.350;8.718;2023-02-28T17:10:45;1.52;67.31
69324;DHT22;56470;47.350;8.718;2023-02-28T17:13:11;1.61;66.90
69324;DHT22;56470;47.350;8.718;2023-02-28T17:15:37;1.62;66.72
69324;DHT22;56470;47.350;8.718;2023-02-28T17:18:03;1.51;66.87
69324;DHT22;56470;47.350;8.718;2023-02-28T17:20:29;1.51;66.68
69324;DHT22;56470;47.350;8.718;2023-02-28T17:22:55;1.50;66.63
69324;DHT22;56470;47.350;8.718;2023-02-28T17:25:22;1.46;67.09
69324;DHT22;56470;47.350;8.718;2023-02-28T17:27:48;1.46;66.85
69324;DHT22;56470;47.350;8.718;2023-02-28T17:30:19;1.38;67.07
69324;DHT22;56470;47.350;8.718;2023-02-28T17:32:45;1.41;66.90
69324;DHT22;56470;47.350;8.718;2023-02-28T17:35:11;1.40;66.99
69324;DHT22;56470;47.350;8.718;2023-02-28T17:37:37;1.33;66.97
69324;DHT22;56470;47.350;8.718;2023-02-28T17:40:03;1.33;66.92
69324;DHT22;56470;47.350;8.718;2023-02-28T17:42:28;1.33;67.23
69324;DHT22;56470;47.350;8.718;2023-02-28T17:44:54;1.34;67.25
69324;DHT22;56470;47.350;8.718;2023-02-28T17:47:19;1.37;67.25
69324;DHT22;56470;47.350;8.718;2023-02-28T17:49:44;1.43;67.43
69324;DHT22;56470;47.350;8.718;2023-02-28T17:52:10;1.51;67.29
69324;DHT22;56470;47.350;8.718;2023-02-28T17:54:35;1.51;67.02
69324;DHT22;56470;47.350;8.718;2023-02-28T17:57:00;1.46;67.29
69324;DHT22;56470;47.350;8.718;2023-02-28T17:59:26;1.48;67.09
69324;DHT22;56470;47.350;8.718;2023-02-28T18:02:01;1.50;67.31
69324;DHT22;56470;47.350;8.718;2023-02-28T18:04:29;1.51;67.31
69324;DHT22;56470;47.350;8.718;2023-02-28T18:06:55;1.50;67.21
69324;DHT22;56470;47.350;8.718;2023-02-28T18:09:25;1.55;67.02
69324;DHT22;56470;47.350;8.718;2023-02-28T18:11:53;1.58;67.23
69324;DHT22;56470;47.350;8.718;2023-02-28T18:14:20;1.79;72.67
69324;DHT22;56470;47.350;8.718;2023-02-28T18:16:47;2.83;74.48
69324;DHT22;56470;47.350;8.718;2023-02-28T18:19:13;3.93;67.67
69324;DHT22;56470;47.350;8.718;2023-02-28T18:21:46;3.72;64.43
69324;DHT22;56470;47.350;8.718;2023-02-28T18:24:13;3.20;63.84
69324;DHT22;56470;47.350;8.718;2023-02-28T18:26:39;2.72;64.18
69324;DHT22;56470;47.350;8.718;2023-02-28T18:29:05;2.27;64.74
69324;DHT22;56470;47.350;8.718;2023-02-28T18:31:31;2.09;65.70